Trommald, Minnesota
Current Conditions -  °F | °C
As of 10:34 AM on Thursday 29 Jan 2015 (Local Time) from KAIT Reporting Station
Overcast Overcast  
Wind Chill: 14°   Ceiling: 1600
Heat Index: 25°   Visibility: 10mi
Dew Point: 16°   Wind: 12mph
Humidity: 69%   Direction: 290°WNW
Pressure: 30.21"   Gusts: 21mph
Location:  46.6149°N, 93.9625°W
Report Text: KAIT 291634Z AUTO 29010G18KT 270V330 10SM OVC016 M04/M09 A3021 RMK AO2
Loading
Personal Weather Stations






























Interactive Weather Map New forecast layout! Learn more

10-Day Weather Forecast

Advertisements
Track Severe Weather on mobile